Fountainhead — ZCTU3 — position and weather

sailwx.info

Track history (hours):
 
Tides and Currents Weather Stations Pressure Air Temp Water Temp Dewpoint Dewpoint Depression Visibility Wind Speed Wind Dir Waves Ship Positions

Fountainhead

Last reported at 2014-Dec-31 10:32 UTC. Time now 2015-Mar-01 23:28 UTC.
Position N 25°46' W 080°10'.
Warning: this ship's position is months out of date.

Length 85 m; draft 4.4 m.

Type: Pleasure craft. MMSI: 319028100.

Date/timePositionNaut miles runAvg speedWind from/ knotsBaromVisibWave heightAir tempDewpointWater temp
2014-Dec-31 10:32N 25°46' W 080°10'8 7.7
2014-Dec-31 09:33N 25°46' W 080°02'1110.8
2014-Dec-31 08:30N 25°52' W 079°51'1313.7
2014-Dec-31 07:33N 25°57' W 079°37'  
2014-Dec-28 07:30N 26°01' W 078°34'1616.6
2014-Dec-28 06:33N 26°05' W 078°51'1716.8
2014-Dec-28 05:33N 26°08' W 079°09'2016.6
2014-Dec-28 04:20N 26°01' W 079°30'3117.3
2014-Dec-28 02:33N 25°48' W 080°01'  
Track history (hours):
 
Tides and Currents Weather Stations Pressure Air Temp Water Temp Dewpoint Dewpoint Depression Visibility Wind Speed Wind Dir Waves Ship Positions

Fountainhead

Last reported at 2014-Dec-31 10:32 UTC. Time now 2015-Mar-01 23:28 UTC.
Position N 25°46' W 080°10'.
Warning: this ship's position is months out of date.

Length 85 m; draft 4.4 m.

Type: Pleasure craft. MMSI: 319028100.

Date/timePositionNaut miles runAvg speedWind from/ knotsBaromVisibWave heightAir tempDewpointWater temp
2014-Dec-31 10:32N 25°46' W 080°10'8 7.7
2014-Dec-31 09:33N 25°46' W 080°02'1110.8
2014-Dec-31 08:30N 25°52' W 079°51'1313.7
2014-Dec-31 07:33N 25°57' W 079°37'  
2014-Dec-28 07:30N 26°01' W 078°34'1616.6
2014-Dec-28 06:33N 26°05' W 078°51'1716.8
2014-Dec-28 05:33N 26°08' W 079°09'2016.6
2014-Dec-28 04:20N 26°01' W 079°30'3117.3
2014-Dec-28 02:33N 25°48' W 080°01'  

Dump ship's entire track history